Venters, Kentucky
Current Conditions -  °F | °C
As of 12:15 PM on Friday 24 Oct 2014 (Local Time) from KPBX Reporting Station
Clear Clear  
Wind Chill: 46°   Ceiling: Unl
Heat Index: 46°   Visibility: 10mi
Dew Point: 45°   Wind: 0mph
Humidity: 98%   Direction: NA
Pressure: 30.13"   Gusts: NA
Location:  37.3089°N, 82.3418°W
Report Text: KPBX 241615Z AUTO 00000KT 10SM CLR 08/07 A3013 RMK AO2 T00760073
Loading
Personal Weather Stations






























Interactive Weather Map
Tropical Storm Tracking
New forecast layout! Learn more

10-Day Weather Forecast

Advertisements
Track Severe Weather on mobile